Home > Products > Valid Products > MTR

000
SAUS41 KBOX 261055
MTRMQE
METAR KMQE 261054Z AUTO 31005KT 04/M01 A2966 RMK AO1 SLP057
T00391006





000
SAUS41 KBOX 260955
MTRMQE
METAR KMQE 260954Z AUTO 30005KT 04/M01 A2965 RMK AO1 SLP052
T00391011





000
SAUS41 KBOX 260855
MTRMQE
METAR KMQE 260854Z AUTO 33005KT 04/M01 A2964 RMK AO1 SLP051
T00391011 56010





000
SAUS41 KBOX 260755
MTRMQE
METAR KMQE 260754Z AUTO 33005KT 04/M02 A2965 RMK AO1 SLP052
T00441017





000
SAUS41 KBOX 260655
MTRMQE
METAR KMQE 260654Z AUTO 34005KT 05/M01 A2966 RMK AO1 SLP055
T00501011





000
SAUS41 KBOX 260655
MTRMQE
METAR KMQE 260654Z AUTO 34005KT 05/M01 A2966 RMK AO1 SLP055
T00501011





000
SAUS41 KBOX 260555
MTRMQE
METAR KMQE 260554Z AUTO 36006KT 05/M02 A2967 RMK AO1 SLP060
T00501017 10083 20044 58009





000
SAUS41 KBOX 260555
MTRMQE
METAR KMQE 260554Z AUTO 36006KT 05/M02 A2967 RMK AO1 SLP060
T00501017 10083 20044 58009





000
SAUS41 KBOX 260456
MTRMQE
METAR KMQE 260454Z AUTO 35008KT 04/M02 A2969 RMK AO1 SLP065
T00441022 401331011





000
SAUS41 KBOX 260456
MTRMQE
METAR KMQE 260454Z AUTO 35008KT 04/M02 A2969 RMK AO1 SLP065
T00441022 401331011





000
SAUS41 KBOX 260356
MTRMQE
METAR KMQE 260354Z AUTO 34006KT 06/M03 A2970 RMK AO1 SLP070
T00561028





000
SAUS41 KBOX 260255
MTRMQE
METAR KMQE 260254Z AUTO 02005KT 07/M02 A2970 RMK AO1 SLP070
T00671022 50004





000
SAUS41 KBOX 260255
MTRMQE
METAR KMQE 260254Z AUTO 02005KT 07/M02 A2970 RMK AO1 SLP070
T00671022 50004





000
SAUS41 KBOX 260155
MTRMQE
METAR KMQE 260154Z AUTO 36006KT 07/M03 A2970 RMK AO1 SLP072
T00721028





000
SAUS41 KBOX 260155
MTRMQE
METAR KMQE 260154Z AUTO 36006KT 07/M03 A2970 RMK AO1 SLP072
T00721028





000
SAUS41 KBOX 260055
MTRMQE
METAR KMQE 260054Z AUTO 01007KT 08/M02 A2970 RMK AO1 SLP071
T00781022





000
SAUS41 KBOX 260055
MTRMQE
METAR KMQE 260054Z AUTO 01007KT 08/M02 A2970 RMK AO1 SLP071
T00781022





000
SAUS41 KBOX 252355
MTRMQE
METAR KMQE 252354Z AUTO 05007KT 08/M03 A2969 RMK AO1 SLP067
T00831028 10133 20083 53011





000
SAUS41 KBOX 252355
MTRMQE
METAR KMQE 252354Z AUTO 05007KT 08/M03 A2969 RMK AO1 SLP067
T00831028 10133 20083 53011





000
SAUS41 KBOX 252255
MTRMQE
METAR KMQE 252254Z AUTO 34010G16KT 10/M03 A2967 RMK AO1 SLP060
T01001033





000
SAUS41 KBOX 252255
MTRMQE
METAR KMQE 252254Z AUTO 34010G16KT 10/M03 A2967 RMK AO1 SLP060
T01001033





000
SAUS41 KBOX 252155
MTRMQE
METAR KMQE 252154Z AUTO 34009G16KT 11/M04 A2966 RMK AO1 SLP057
T01111039





000
SAUS41 KBOX 252155
MTRMQE
METAR KMQE 252154Z AUTO 34009G16KT 11/M04 A2966 RMK AO1 SLP057
T01111039





000
SAUS41 KBOX 252056
MTRMQE
METAR KMQE 252054Z AUTO 33011G19KT 12/M04 A2965 RMK AO1 SLP055
T01171039 55006





000
SAUS41 KBOX 252056
MTRMQE
METAR KMQE 252054Z AUTO 33011G19KT 12/M04 A2965 RMK AO1 SLP055
T01171039 55006





000
SAUS41 KBOX 251955
MTRMQE
METAR KMQE 251954Z AUTO 32013G20KT 12/M04 A2965 RMK AO1 SLP053
T01171039





000
SAUS41 KBOX 251955
MTRMQE
METAR KMQE 251954Z AUTO 32013G20KT 12/M04 A2965 RMK AO1 SLP053
T01171039





000
SAUS41 KBOX 251855
MTRMQE
METAR KMQE 251854Z AUTO 31018G26KT 11/M04 A2965 RMK AO1 PK WND
32026/1853 SLP054 T01111044





000
SAUS41 KBOX 251755
MTRMQE
METAR KMQE 251754Z AUTO 31009G19KT 290V010 12/M04 A2967 RMK AO1
SLP061 T01171039 10122 20022 56014





000
SAUS41 KBOX 251755
MTRMQE
METAR KMQE 251754Z AUTO 31009G19KT 290V010 12/M04 A2967 RMK AO1
SLP061 T01171039 10122 20022 56014





000
SAUS41 KBOX 251656
MTRMQE
METAR KMQE 251654Z AUTO 31009G21KT 12/M04 A2968 RMK AO1 SLP065
T01171039





000
SAUS41 KBOX 251555
MTRMQE
METAR KMQE 251554Z AUTO 29010KT 260V320 10/M04 A2970 RMK AO1 SLP070
T01001039





000
SAUS41 KBOX 251555
MTRMQE
METAR KMQE 251554Z AUTO 29010KT 260V320 10/M04 A2970 RMK AO1 SLP070
T01001039





000
SAUS41 KBOX 251455
MTRMQE
METAR KMQE 251454Z AUTO 29012G19KT 08/M04 A2971 RMK AO1 SLP076
T00781044 58012





000
SAUS41 KBOX 251355
MTRMQE
METAR KMQE 251354Z AUTO 28009G16KT 07/M04 A2973 RMK AO1 SLP082
T00671044





000
SAUS41 KBOX 251255
MTRMQE
METAR KMQE 251254Z AUTO 30011G18KT 04/M05 A2974 RMK AO1 SLP086
T00441050





000
SAUS41 KBOX 251155
MTRMQE
METAR KMQE 251154Z AUTO 29009KT 02/M05 A2975 RMK AO1 SLP090
T00221050 10022 21011 50006





000
SAUS41 KBOX 251155
MTRMQE
METAR KMQE 251154Z AUTO 29009KT 02/M05 A2975 RMK AO1 SLP090
T00221050 10022 21011 50006





000
SAUS41 KBOX 251055
MTRMQE
METAR KMQE 251054Z AUTO 28008KT M01/M05 A2975 RMK AO1 SLP091
T10061050





000
SAUS41 KBOX 251055
MTRMQE
METAR KMQE 251054Z AUTO 28008KT M01/M05 A2975 RMK AO1 SLP091
T10061050





000
SAUS41 KBOX 250955
MTRMQE
METAR KMQE 250954Z AUTO 28010KT M01/M06 A2974 RMK AO1 SLP085
T10111056





000
SAUS41 KBOX 250855
MTRMQE
METAR KMQE 250854Z AUTO 27010KT M01/M06 A2973 RMK AO1 SLP083
T10061061 55002





000
SAUS41 KBOX 250755
MTRMQE
METAR KMQE 250754Z AUTO 27010KT 00/M06 A2973 RMK AO1 SLP081
T00001061





000
SAUS41 KBOX 250655
MTRMQE
METAR KMQE 250654Z AUTO 28011KT 01/M06 A2973 RMK AO1 SLP082
T00061056





000
SAUS41 KBOX 250556
MTRMQE
METAR KMQE 250554Z AUTO 29012G18KT 02/M06 A2974 RMK AO1 SLP084
T00171056 10050 20011 58007





000
SAUS41 KBOX 250556
MTRMQE
METAR KMQE 250554Z AUTO 29012G18KT 02/M06 A2974 RMK AO1 SLP084
T00171056 10050 20011 58007





000
SAUS41 KBOX 250455
MTRMQE
METAR KMQE 250454Z AUTO 29010G15KT 02/M05 A2975 RMK AO1 SLP088
T00221050 401001006





000
SAUS41 KBOX 250355
MTRMQE
METAR KMQE 250354Z AUTO 30012G22KT 02/M05 A2975 RMK AO1 SLP090
T00221050





000
SAUS41 KBOX 250255
MTRMQE
METAR KMQE 250254Z AUTO 29015G24KT 03/M05 A2976 RMK AO1 PK WND
28027/0231 SLP091 T00331050 50008





000
SAUS41 KBOX 250155
MTRMQE
METAR KMQE 250154Z AUTO 29010G18KT 04/M05 A2976 RMK AO1 SLP092
T00391050





000
SAUS41 KBOX 250155
MTRMQE
METAR KMQE 250154Z AUTO 29010G18KT 04/M05 A2976 RMK AO1 SLP092
T00391050





000
SAUS41 KBOX 250055
MTRMQE
METAR KMQE 250054Z AUTO 30010G16KT 04/M06 A2976 RMK AO1 SLP090
T00441061





000
SAUS41 KBOX 250055
MTRMQE
METAR KMQE 250054Z AUTO 30010G16KT 04/M06 A2976 RMK AO1 SLP090
T00441061





000
SAUS41 KBOX 242355
MTRMQE
METAR KMQE 242354Z AUTO 31016G24KT 05/M07 A2973 RMK AO1 PK WND
31027/2336 SLP083 T00501067 10100 20050 53015





000
SAUS41 KBOX 242355
MTRMQE
METAR KMQE 242354Z AUTO 31016G24KT 05/M07 A2973 RMK AO1 PK WND
31027/2336 SLP083 T00501067 10100 20050 53015





000
SAUS41 KBOX 242255
MTRMQE
METAR KMQE 242254Z AUTO 30017G25KT 06/M06 A2971 RMK AO1 SLP077
T00611061





000
SAUS41 KBOX 242255
MTRMQE
METAR KMQE 242254Z AUTO 30017G25KT 06/M06 A2971 RMK AO1 SLP077
T00611061





000
SAUS41 KBOX 242155
MTRMQE
METAR KMQE 242154Z AUTO 30011G23KT 07/M06 A2970 RMK AO1 SLP071
T00721061





000
SAUS41 KBOX 242155
MTRMQE
METAR KMQE 242154Z AUTO 30011G23KT 07/M06 A2970 RMK AO1 SLP071
T00721061





000
SAUS41 KBOX 242055
MTRMQE
METAR KMQE 242054Z AUTO 30016G28KT 07/M06 A2969 RMK AO1 PK WND
28028/2045 SLP069 T00721056 53005





000
SAUS41 KBOX 242055
MTRMQE
METAR KMQE 242054Z AUTO 30016G28KT 07/M06 A2969 RMK AO1 PK WND
28028/2045 SLP069 T00721056 53005





000
SAUS41 KBOX 241955
MTRMQE
METAR KMQE 241954Z AUTO 30012G25KT 09/M05 A2967 RMK AO1 PK WND
31026/1941 SLP062 T00891050





000
SAUS41 KBOX 241855
MTRMQE
METAR KMQE 241854Z AUTO 31011G22KT 08/M05 A2967 RMK AO1 PK WND
29026/1844 SLP061 T00831050





000
SAUS41 KBOX 241755
MTRMQE
METAR KMQE 241754Z AUTO 32014G21KT 08/M04 A2967 RMK AO1 PK WND
29026/1709 SLP063 T00781044 10094 20033 56006





000
SAUS41 KBOX 241755
MTRMQE
METAR KMQE 241754Z AUTO 32014G21KT 08/M04 A2967 RMK AO1 PK WND
29026/1709 SLP063 T00781044 10094 20033 56006





000
SAUS41 KBOX 241655
MTRMQE
METAR KMQE 241654Z AUTO 31019G27KT 07/M05 A2968 RMK AO1 PK WND
31027/1649 SLP064 T00721050





000
SAUS41 KBOX 241655
MTRMQE
METAR KMQE 241654Z AUTO 31019G27KT 07/M05 A2968 RMK AO1 PK WND
31027/1649 SLP064 T00721050





000
SAUS41 KBOX 241555
MTRMQE
METAR KMQE 241554Z AUTO 31016G23KT 07/M05 A2968 RMK AO1 PK WND
29026/1509 SLP066 T00721050





000
SAUS41 KBOX 241455
MTRMQE
METAR KMQE 241454Z AUTO 30012G24KT 270V330 07/M04 A2969 RMK AO1 PK
WND 29026/1409 SLP069 T00721039 56001





000
SAUS41 KBOX 241355
MTRMQE
METAR KMQE 241354Z AUTO 32017G26KT 06/M04 A2969 RMK AO1 PK WND
32026/1335 SLP070 T00561044





000
SAUS41 KBOX 241355
MTRMQE
METAR KMQE 241354Z AUTO 32017G26KT 06/M04 A2969 RMK AO1 PK WND
32026/1335 SLP070 T00561044





000
SAUS41 KBOX 241255
MTRMQE
METAR KMQE 241254Z AUTO 30017G26KT 05/M04 A2969 RMK AO1 PK WND
31030/1231 SLP068 T00501039





000
SAUS41 KBOX 241155
MTRMQE
METAR KMQE 241154Z AUTO 31013G21KT 03/M04 A2969 RMK AO1 SLP070
T00331039 10033 21006 53006





000
SAUS41 KBOX 241055
MTRMQE
METAR KMQE 241054Z AUTO 29012G21KT 02/M04 A2969 RMK AO1 SLP069
T00171039





000
SAUS41 KBOX 241055
MTRMQE
METAR KMQE 241054Z AUTO 29012G21KT 02/M04 A2969 RMK AO1 SLP069
T00171039





000
SAUS41 KBOX 240955
MTRMQE
METAR KMQE 240954Z AUTO 28011G24KT 01/M03 A2968 RMK AO1 SLP065
T00111033





000
SAUS41 KBOX 240855
MTRMQE
METAR KMQE 240854Z AUTO 27012KT 01/M03 A2967 RMK AO1 SLP064
T00061033 53003





000
SAUS41 KBOX 240855
MTRMQE
METAR KMQE 240854Z AUTO 27012KT 01/M03 A2967 RMK AO1 SLP064
T00061033 53003





000
SAUS41 KBOX 240755
MTRMQE
METAR KMQE 240754Z AUTO 27013KT M01/M04 A2967 RMK AO1 SLP062
T10061039





000
SAUS41 KBOX 240755
MTRMQE
METAR KMQE 240754Z AUTO 27013KT M01/M04 A2967 RMK AO1 SLP062
T10061039





000
SAUS41 KBOX 240655
MTRMQE
METAR KMQE 240654Z AUTO 26010KT 00/M04 A2966 RMK AO1 SLP059
T00001044





000
SAUS41 KBOX 240655
MTRMQE
METAR KMQE 240654Z AUTO 26010KT 00/M04 A2966 RMK AO1 SLP059
T00001044





000
SAUS41 KBOX 240555
MTRMQE
METAR KMQE 240554Z AUTO 28011G18KT 01/M04 A2966 RMK AO1 SLP060
T00061044 10039 20006 50000





000
SAUS41 KBOX 240555
MTRMQE
METAR KMQE 240554Z AUTO 28011G18KT 01/M04 A2966 RMK AO1 SLP060
T00061044 10039 20006 50000





000
SAUS41 KBOX 240455
MTRMQE
METAR KMQE 240454Z AUTO 28011G19KT 01/M04 A2967 RMK AO1 SLP063
T00111044 400940011





000
SAUS41 KBOX 240355
MTRMQE
METAR KMQE 240354Z AUTO 30010G22KT 02/M05 A2967 RMK AO1 SLP061
T00221050





000
SAUS41 KBOX 240255
MTRMQE
METAR KMQE 240254Z AUTO 29011G21KT 02/M06 A2966 RMK AO1 SLP059
T00221061 51008





000
SAUS41 KBOX 240155
MTRMQE
METAR KMQE 240154Z AUTO 29012G20KT 02/M07 A2966 RMK AO1 PK WND
28027/0058 SLP060 T00221067





000
SAUS41 KBOX 240155
MTRMQE
METAR KMQE 240154Z AUTO 29012G20KT 02/M07 A2966 RMK AO1 PK WND
28027/0058 SLP060 T00221067





000
SAUS41 KBOX 240055
MTRMQE
METAR KMQE 240054Z AUTO 27017G24KT 04/M06 A2965 RMK AO1 SLP054
T00391056





000
SAUS41 KBOX 240055
MTRMQE
METAR KMQE 240054Z AUTO 27017G24KT 04/M06 A2965 RMK AO1 SLP054
T00391056





000
SAUS41 KBOX 232355
MTRMQE
METAR KMQE 232354Z AUTO 28009KT 04/M03 A2964 RMK AO1 SLP051
T00391033 10094 20039 53014





000
SAUS41 KBOX 232355
MTRMQE
METAR KMQE 232354Z AUTO 28009KT 04/M03 A2964 RMK AO1 SLP051
T00391033 10094 20039 53014





000
SAUS41 KBOX 232255
MTRMQE
METAR KMQE 232254Z AUTO 27014G26KT 06/M05 A2962 RMK AO1 PK WND
28026/2248 SLP044 T00561050





000
SAUS41 KBOX 232255
MTRMQE
METAR KMQE 232254Z AUTO 27014G26KT 06/M05 A2962 RMK AO1 PK WND
28026/2248 SLP044 T00561050





000
SAUS41 KBOX 232155
MTRMQE
METAR KMQE 232154Z AUTO 29013G19KT 06/M07 A2960 RMK AO1 SLP038
T00611067





000
SAUS41 KBOX 232155
MTRMQE
METAR KMQE 232154Z AUTO 29013G19KT 06/M07 A2960 RMK AO1 SLP038
T00611067





000
SAUS41 KBOX 232055
MTRMQE
METAR KMQE 232054Z AUTO 30010G23KT 07/M07 A2960 RMK AO1 PK WND
29026/2010 SLP036 T00671072 53005





000
SAUS41 KBOX 232055
MTRMQE
METAR KMQE 232054Z AUTO 30010G23KT 07/M07 A2960 RMK AO1 PK WND
29026/2010 SLP036 T00671072 53005





000
SAUS41 KBOX 231955
MTRMQE
METAR KMQE 231954Z AUTO 28015G26KT 08/M07 A2958 RMK AO1 PK WND
27026/1947 SLP029 T00781072





000
SAUS41 KBOX 231855
MTRMQE
METAR KMQE 231854Z AUTO 28010G18KT 08/M07 A2957 RMK AO1 SLP028
T00831067





000
SAUS41 KBOX 231855
MTRMQE
METAR KMQE 231854Z AUTO 28010G18KT 08/M07 A2957 RMK AO1 SLP028
T00831067





000
SAUS41 KBOX 231755
MTRMQE
METAR KMQE 231754Z AUTO 28013G22KT 07/M07 A2958 RMK AO1 SLP030
T00671067 10089 20050 55001





000
SAUS41 KBOX 231755
MTRMQE
METAR KMQE 231754Z AUTO 28013G22KT 07/M07 A2958 RMK AO1 SLP030
T00671067 10089 20050 55001





000
SAUS41 KBOX 231656
MTRMQE
METAR KMQE 231654Z AUTO 28013G23KT 07/M05 A2958 RMK AO1 SLP030
T00671050





000
SAUS41 KBOX 231656
MTRMQE
METAR KMQE 231654Z AUTO 28013G23KT 07/M05 A2958 RMK AO1 SLP030
T00671050





000
SAUS41 KBOX 231555
MTRMQE
METAR KMQE 231554Z AUTO 26014G23KT 07/M04 A2958 RMK AO1 SLP030
T00721039





000
SAUS41 KBOX 231455
MTRMQE
METAR KMQE 231454Z AUTO 26012G23KT 07/M03 A2959 RMK AO1 SLP031
T00721028 57005





000
SAUS41 KBOX 231355
MTRMQE
METAR KMQE 231354Z AUTO 26010G18KT 06/M01 A2959 RMK AO1 SLP034
T00561006





000
SAUS41 KBOX 231255
MTRMQE
METAR KMQE 231254Z AUTO 28011G23KT 07/M01 A2959 RMK AO1 SLP033
T00671011





000
SAUS41 KBOX 231255
MTRMQE
METAR KMQE 231254Z AUTO 28011G23KT 07/M01 A2959 RMK AO1 SLP033
T00671011





000
SAUS41 KBOX 231155
MTRMQE
METAR KMQE 231154Z AUTO 28013G21KT 05/M01 A2960 RMK AO1 SLP036 70003
T00501006 10056 20028 51012





000
SAUS41 KBOX 231155
MTRMQE
METAR KMQE 231154Z AUTO 28013G21KT 05/M01 A2960 RMK AO1 SLP036 70003
T00501006 10056 20028 51012





    US Dept of Commerce
    National Oceanic and Atmospheric Administration
    National Weather Service
    1325 East West Highway
    Silver Spring, MD 20910
    Page Author: NWS Internet Services Team
Disclaimer
Information Quality
Credits
Glossary
Privacy Policy
Freedom of Information Act (FOIA)
About Us
Career Opportunities